Aeroporto :
LOGIN :

Iscrizione | Disclaimer

   EN    FR    IT 

 










Sommario :    VFR   VFR Marginale   IFR   IFR Intensivo   IFR Molto Intensivo
Visibilità : 
Base nubi : 
>= 8 km
>= 3000ft
5 / 8 km
1000 / 3000 ft
1500m / 5 km
500 / 1000 ft
800 / 1500m
200 / 500 ft
< 800m
< 200 ft
Simboli :   Temporali  Nebbia  Neve Forte  Precipitazioni Forti  Vento > 20 kt
SIGMETs :   Varie  Temporali  Ghiacco  Turbolenza  Onda orograficha  Ceneri Vulcaniche







- Altitudine del aeroporto : 741 ft
- Codice IATA : PED


LKPD - Pardubice AB

ULTIMO METAR :
  • 260600Z 09005KT CAVOK 15/09 Q1009 NOSIG RMK BLU BLU

METARs OBSOLETI :
  • 260500Z 00000KT CAVOK 10/07 Q1009 NOSIG RMK BLU BLU
  • 260400Z 27002KT CAVOK 09/06 Q1009 NOSIG RMK BLU BLU
  • 260300Z 10003KT CAVOK 11/07 Q1009 RMK BLU

TAF TAF LKPD
Valido dal 26 a 06 ore il 27 a 06 ore UTC


260500Z 2606/2706 12005KT CAVOK
BECMG 2611/2613 13010KT
BECMG 2616/2618 27010KT SCT040
TEMPO 2617/2620 27020G35KT 6000 SHRA SCT025CB BKN040
PROB40
TEMPO 2617/2620 4000 TSRA
TEMPO 2620/2706 RA BKN025
Nessun NOTAM noto per questo aeroporto.



MetMap, La meteo Aeronautica in un colpo d'occhio ! - Copyright ORBIFLY Dicembre 2007 - Disclaimer

ORBIFLY MET'MAP TEAM :

Programmazione e sviluppo : Alexandra Zaïnal
Concezione e sviluppo : Baudouin d'Aumeries
Co-Programmazione e sviluppo : Marc-Olivier Méhu
Supporto tecnico e logistico : Manuel Goepfert
Aiuto per la traduzione : Arnaldo La Scala

Contatto : metmap@orbifly.com




FONTI E CREDITI :

   NOAA